Time;durP1;ratioP1;P1;durP2;ratioP2;P2;SDS_P1;SDS_P2;PMS_P1;PMS_P2;Temp;Humidity;BMP_temperature;BMP_pressure;BME280_temperature;BME280_humidity;BME280_pressure;Samples;Min_cycle;Max_cycle;Signal;HPM_P1;HPM_P2
2021/05/04 00:00:12;;;;;;;10.35;7.55;;;10.70;99.90;;;;;;5114242;28;20443;-54
2021/05/04 00:02:38;;;;;;;9.00;7.10;;;10.70;99.90;;;;;;5113923;28;20401;-54
2021/05/04 00:05:04;;;;;;;10.25;7.32;;;10.80;99.90;;;;;;5113621;28;20126;-54
2021/05/04 00:07:30;;;;;;;11.88;6.75;;;10.60;99.90;;;;;;5113745;28;20056;-54
2021/05/04 00:09:56;;;;;;;10.13;7.70;;;10.60;99.90;;;;;;5113766;28;20040;-54
2021/05/04 00:12:22;;;;;;;8.30;6.72;;;10.60;99.90;;;;;;5113704;28;20139;-54
2021/05/04 00:14:47;;;;;;;7.78;6.93;;;10.60;99.90;;;;;;5114046;28;20043;-54
2021/05/04 00:17:13;;;;;;;8.13;6.35;;;10.60;99.90;;;;;;5113554;28;20039;-54
2021/05/04 00:19:39;;;;;;;7.68;6.80;;;10.60;99.90;;;;;;5113623;28;20046;-54
2021/05/04 00:22:06;;;;;;;8.82;6.00;;;10.60;99.90;;;;;;5113514;28;20051;-54
2021/05/04 00:24:32;;;;;;;7.65;6.43;;;10.50;99.90;;;;;;5113420;28;20415;-54
2021/05/04 00:26:58;;;;;;;7.05;6.35;;;10.40;99.90;;;;;;5113273;28;20047;-54
2021/05/04 00:29:23;;;;;;;9.93;6.10;;;10.40;99.90;;;;;;5113393;28;20396;-54
2021/05/04 00:31:49;;;;;;;8.65;6.57;;;10.40;99.90;;;;;;5113339;28;20114;-55
2021/05/04 00:34:15;;;;;;;7.13;5.78;;;10.30;99.90;;;;;;5095038;28;20510;-54
2021/05/04 00:36:41;;;;;;;7.35;6.25;;;10.20;99.90;;;;;;5113291;28;20051;-54
2021/05/04 00:39:06;;;;;;;6.95;6.32;;;10.20;99.90;;;;;;5112936;28;20505;-54
2021/05/04 00:41:32;;;;;;;11.55;6.70;;;10.10;99.90;;;;;;5113080;28;20485;-55
2021/05/04 00:43:58;;;;;;;10.07;5.80;;;10.20;99.90;;;;;;5113350;28;20043;-54
2021/05/04 00:46:24;;;;;;;8.15;6.47;;;10.00;99.90;;;;;;5113175;28;20473;-54
2021/05/04 00:48:49;;;;;;;7.57;6.07;;;9.90;99.90;;;;;;5112951;28;20397;-55
2021/05/04 00:51:15;;;;;;;6.80;6.10;;;9.90;99.90;;;;;;5112800;28;20036;-54
2021/05/04 00:53:41;;;;;;;8.32;5.50;;;9.80;99.90;;;;;;5112840;28;20401;-55
2021/05/04 00:56:08;;;;;;;7.88;6.47;;;9.80;99.90;;;;;;5112895;28;20040;-55
2021/05/04 00:58:35;;;;;;;6.38;5.78;;;9.80;99.90;;;;;;5113055;28;20047;-54
2021/05/04 01:01:02;;;;;;;9.90;5.78;;;9.70;99.90;;;;;;5113014;28;20070;-55
2021/05/04 01:03:28;;;;;;;7.75;6.05;;;9.60;99.90;;;;;;5113105;28;20056;-54
2021/05/04 01:05:54;;;;;;;8.25;6.38;;;9.60;99.90;;;;;;5112992;28;20499;-54
2021/05/04 01:08:20;;;;;;;7.22;5.82;;;9.50;99.90;;;;;;5112860;28;20047;-54
2021/05/04 01:10:46;;;;;;;7.38;6.00;;;9.50;99.90;;;;;;5112378;28;20043;-54
2021/05/04 01:13:12;;;;;;;8.38;6.38;;;9.50;99.90;;;;;;5112488;28;20039;-54
2021/05/04 01:15:41;;;;;;;9.63;5.95;;;9.40;99.90;;;;;;5112567;28;20042;-55
2021/05/04 01:18:07;;;;;;;6.85;6.07;;;9.30;99.90;;;;;;5112694;28;20165;-54
2021/05/04 01:20:33;;;;;;;6.85;5.82;;;9.30;99.90;;;;;;5112401;28;20054;-54
2021/05/04 01:22:59;;;;;;;8.80;6.47;;;9.30;99.90;;;;;;5112350;28;20046;-54
2021/05/04 01:25:25;;;;;;;9.48;6.50;;;9.20;99.90;;;;;;5112344;28;20043;-54
2021/05/04 01:27:50;;;;;;;10.00;6.15;;;9.20;99.90;;;;;;5112302;28;20085;-54
2021/05/04 01:30:16;;;;;;;8.75;6.78;;;9.10;99.90;;;;;;5112258;28;20397;-54
2021/05/04 01:32:42;;;;;;;8.43;6.55;;;9.10;99.90;;;;;;5112294;28;20051;-54
2021/05/04 01:35:10;;;;;;;8.50;6.60;;;9.10;99.90;;;;;;5112394;28;20040;-55
2021/05/04 01:37:39;;;;;;;9.23;6.63;;;9.00;99.90;;;;;;5112045;28;20075;-55
2021/05/04 01:40:07;;;;;;;7.90;6.45;;;9.00;99.90;;;;;;5112018;28;20150;-55
2021/05/04 01:42:33;;;;;;;8.48;6.95;;;9.00;99.90;;;;;;5111902;28;20101;-55
2021/05/04 01:44:58;;;;;;;7.57;6.75;;;8.90;99.90;;;;;;5112088;28;20047;-55
2021/05/04 01:47:24;;;;;;;7.30;6.43;;;8.90;99.90;;;;;;5112285;28;20172;-55
2021/05/04 01:49:50;;;;;;;9.40;7.00;;;8.90;99.90;;;;;;5112135;28;20078;-54
2021/05/04 01:52:16;;;;;;;10.32;7.00;;;8.90;99.90;;;;;;5111997;28;20035;-55
2021/05/04 01:54:43;;;;;;;10.40;6.65;;;8.80;99.90;;;;;;5112027;28;20046;-55
2021/05/04 01:57:08;;;;;;;9.48;7.22;;;8.80;99.90;;;;;;5112029;28;20473;-55
2021/05/04 01:59:34;;;;;;;9.18;7.50;;;8.70;99.90;;;;;;5112088;28;20042;-55
2021/05/04 02:02:00;;;;;;;11.35;6.90;;;8.70;99.90;;;;;;5112243;28;20036;-54
2021/05/04 02:04:30;;;;;;;9.55;7.45;;;8.80;99.90;;;;;;5112090;28;20526;-55
2021/05/04 02:06:56;;;;;;;7.75;6.90;;;8.70;99.90;;;;;;5111997;28;20400;-55
2021/05/04 02:09:22;;;;;;;10.40;7.72;;;8.70;99.90;;;;;;5111873;28;20127;-55
2021/05/04 02:11:48;;;;;;;9.07;7.32;;;8.60;99.90;;;;;;5111944;28;20127;-55
2021/05/04 02:14:13;;;;;;;8.23;7.43;;;8.70;99.90;;;;;;5111959;28;20047;-55
2021/05/04 02:16:40;;;;;;;12.10;7.55;;;8.60;99.90;;;;;;5111967;28;20374;-55
2021/05/04 02:19:06;;;;;;;10.98;8.32;;;8.60;99.90;;;;;;5111715;28;20050;-54
2021/05/04 02:21:32;;;;;;;10.15;8.35;;;8.50;99.90;;;;;;5111711;28;20134;-55
2021/05/04 02:23:58;;;;;;;10.20;7.32;;;8.60;99.90;;;;;;5112083;28;20134;-55
2021/05/04 02:26:23;;;;;;;11.55;7.18;;;8.60;99.90;;;;;;5112176;28;20048;-55
2021/05/04 02:28:50;;;;;;;10.57;7.47;;;8.60;99.90;;;;;;5112086;28;20063;-55
2021/05/04 02:31:16;;;;;;;11.10;7.40;;;8.60;99.90;;;;;;5111778;28;20123;-56
2021/05/04 02:33:43;;;;;;;10.13;7.68;;;8.50;99.90;;;;;;5111654;28;20047;-56
2021/05/04 02:36:10;;;;;;;11.20;6.88;;;8.50;99.90;;;;;;5111510;28;20052;-56
2021/05/04 02:38:36;;;;;;;11.75;7.40;;;8.40;99.90;;;;;;5111689;28;20071;-55
2021/05/04 02:41:03;;;;;;;8.07;6.60;;;8.40;99.90;;;;;;5111633;28;20102;-56
2021/05/04 02:43:29;;;;;;;11.50;7.40;;;8.40;99.90;;;;;;5111751;28;20051;-56
2021/05/04 02:45:55;;;;;;;12.90;7.97;;;8.40;99.90;;;;;;5111512;28;20044;-56
2021/05/04 02:48:21;;;;;;;12.20;7.70;;;8.50;99.90;;;;;;5111475;28;20047;-56
2021/05/04 02:50:47;;;;;;;10.07;6.95;;;8.40;99.90;;;;;;5111337;28;20101;-56
2021/05/04 02:53:14;;;;;;;13.02;7.05;;;8.30;99.90;;;;;;5111334;28;20074;-56
2021/05/04 02:55:39;;;;;;;7.22;6.38;;;8.30;99.90;;;;;;5112606;28;20485;-56
2021/05/04 02:58:06;;;;;;;6.78;6.03;;;8.30;99.90;;;;;;5115201;28;20036;-56
2021/05/04 03:00:31;;;;;;;8.90;5.63;;;8.40;99.90;;;;;;5115113;28;20512;-57
2021/05/04 03:02:57;;;;;;;7.03;5.47;;;8.30;99.90;;;;;;5115102;28;20131;-56
2021/05/04 03:05:23;;;;;;;7.90;5.32;;;8.30;99.90;;;;;;5114909;28;20481;-56
2021/05/04 03:07:49;;;;;;;7.65;5.35;;;8.30;99.90;;;;;;5115015;28;20048;-56
2021/05/04 03:10:15;;;;;;;9.27;5.80;;;8.30;99.90;;;;;;5114995;28;20058;-56
2021/05/04 03:12:41;;;;;;;9.30;4.72;;;8.30;99.90;;;;;;5114955;28;20393;-56
2021/05/04 03:15:07;;;;;;;5.47;4.55;;;8.30;99.90;;;;;;5115015;28;20097;-56
2021/05/04 03:17:33;;;;;;;5.28;4.47;;;8.30;99.90;;;;;;5114668;28;20045;-56
2021/05/04 03:19:59;;;;;;;8.77;5.03;;;8.30;99.90;;;;;;5114581;28;20047;-56
2021/05/04 03:22:24;;;;;;;6.55;4.80;;;8.30;99.90;;;;;;5096556;28;20493;-56
2021/05/04 03:24:50;;;;;;;8.38;4.35;;;8.30;99.90;;;;;;5114983;28;20031;-56
2021/05/04 03:27:16;;;;;;;6.85;4.45;;;8.30;99.90;;;;;;5114564;28;20042;-56
2021/05/04 03:29:42;;;;;;;5.30;4.45;;;8.30;99.90;;;;;;5114754;28;20051;-56
2021/05/04 03:32:08;;;;;;;12.70;4.57;;;8.30;99.90;;;;;;5114349;28;20043;-56
2021/05/04 03:34:33;;;;;;;10.18;4.57;;;8.30;99.90;;;;;;5114647;28;20039;-56
2021/05/04 03:36:59;;;;;;;8.55;4.38;;;8.30;99.90;;;;;;5114327;28;20043;-56
2021/05/04 03:39:25;;;;;;;5.47;4.30;;;8.30;99.90;;;;;;5114256;28;20056;-56
2021/05/04 03:41:51;;;;;;;8.65;4.07;;;8.30;99.90;;;;;;5114261;28;20470;-56
2021/05/04 03:44:17;;;;;;;6.32;4.68;;;8.30;99.90;;;;;;5114209;28;20469;-56
2021/05/04 03:46:43;;;;;;;5.25;4.28;;;8.30;99.90;;;;;;5114114;28;20126;-56
2021/05/04 03:49:09;;;;;;;8.85;4.68;;;8.30;99.90;;;;;;5114264;28;20120;-57
2021/05/04 03:51:35;;;;;;;6.80;4.70;;;8.30;99.90;;;;;;5114195;28;20050;-56
2021/05/04 03:54:01;;;;;;;6.47;4.95;;;8.30;99.90;;;;;;5114020;28;20035;-56
2021/05/04 03:56:26;;;;;;;8.88;4.57;;;8.30;99.90;;;;;;5114339;28;20423;-56
2021/05/04 03:58:52;;;;;;;7.68;4.28;;;8.30;99.90;;;;;;5113926;28;20134;-57
2021/05/04 04:01:18;;;;;;;5.40;3.85;;;8.30;99.90;;;;;;5113824;28;20500;-56
2021/05/04 04:03:43;;;;;;;5.90;3.88;;;8.40;99.90;;;;;;5113880;28;20412;-57
2021/05/04 04:06:10;;;;;;;5.10;4.60;;;8.30;99.90;;;;;;5113632;28;20047;-56
2021/05/04 04:08:36;;;;;;;5.50;4.40;;;8.30;99.90;;;;;;5114095;28;20051;-55
2021/05/04 04:11:02;;;;;;;7.00;4.05;;;8.30;99.90;;;;;;5113916;28;20392;-56
2021/05/04 04:13:28;;;;;;;8.07;4.97;;;8.40;99.90;;;;;;5113451;28;20036;-56
2021/05/04 04:15:54;;;;;;;6.15;5.13;;;8.30;99.90;;;;;;5113437;28;20035;-56
2021/05/04 04:18:20;;;;;;;4.95;4.30;;;8.30;99.90;;;;;;5113493;28;20053;-56
2021/05/04 04:20:45;;;;;;;6.15;4.28;;;8.30;99.90;;;;;;5113307;28;20039;-56
2021/05/04 04:23:11;;;;;;;5.05;4.55;;;8.30;99.90;;;;;;5095230;28;20048;-56
2021/05/04 04:25:37;;;;;;;4.68;3.70;;;8.40;99.90;;;;;;5113278;28;20386;-56
2021/05/04 04:28:02;;;;;;;4.82;4.30;;;8.40;99.90;;;;;;5113447;28;20043;-57
2021/05/04 04:30:28;;;;;;;4.95;4.30;;;8.40;99.90;;;;;;5113200;28;20469;-56
2021/05/04 04:32:54;;;;;;;5.97;4.57;;;8.40;99.90;;;;;;5113378;28;20039;-56
2021/05/04 04:35:20;;;;;;;4.30;3.90;;;8.50;99.90;;;;;;5113141;28;20039;-56
2021/05/04 04:37:45;;;;;;;5.70;4.00;;;8.50;99.90;;;;;;5113298;28;20066;-56
2021/05/04 04:40:12;;;;;;;7.38;3.83;;;8.50;99.90;;;;;;5112981;28;20560;-56
2021/05/04 04:42:38;;;;;;;5.45;4.07;;;8.50;99.90;;;;;;5112942;28;20485;-57
2021/05/04 04:45:04;;;;;;;9.93;5.20;;;8.50;99.90;;;;;;5113041;28;20047;-57
2021/05/04 04:47:31;;;;;;;6.28;4.32;;;8.40;99.90;;;;;;5112830;28;20040;-56
2021/05/04 04:49:57;;;;;;;5.57;4.03;;;8.40;99.90;;;;;;5113025;28;20048;-56
2021/05/04 04:52:22;;;;;;;7.82;4.40;;;8.40;99.90;;;;;;5113154;28;20162;-57
2021/05/04 04:54:48;;;;;;;7.88;4.55;;;8.40;99.90;;;;;;5113000;28;20047;-57
2021/05/04 04:57:14;;;;;;;5.80;4.55;;;8.40;99.90;;;;;;5113052;28;20045;-57
2021/05/04 04:59:40;;;;;;;6.13;4.32;;;8.40;99.90;;;;;;5112786;28;20036;-57
2021/05/04 05:02:06;;;;;;;6.80;3.78;;;8.40;99.90;;;;;;5112569;28;20031;-57
2021/05/04 05:04:32;;;;;;;8.20;4.50;;;8.50;99.90;;;;;;5094480;28;20067;-57
2021/05/04 05:07:05;;;;;;;6.47;4.20;;;8.50;99.90;;;;;;5112548;28;20477;-57
2021/05/04 05:09:35;;;;;;;5.60;4.45;;;8.50;99.90;;;;;;5112827;28;20112;-58
2021/05/04 05:12:07;;;;;;;6.78;4.40;;;8.50;99.90;;;;;;5112590;28;20051;-58
2021/05/04 05:14:35;;;;;;;7.43;3.90;;;8.50;99.90;;;;;;5112400;28;20040;-57
2021/05/04 05:17:02;;;;;;;7.70;3.85;;;8.50;99.90;;;;;;5094011;28;20118;-58
2021/05/04 05:19:29;;;;;;;5.95;4.10;;;8.50;99.90;;;;;;5111822;28;20039;-58
2021/05/04 05:21:56;;;;;;;5.82;4.28;;;8.50;99.90;;;;;;5112453;28;20067;-58
2021/05/04 05:24:24;;;;;;;10.82;3.38;;;8.50;99.90;;;;;;5112364;28;20046;-58
2021/05/04 05:26:51;;;;;;;8.70;4.05;;;8.60;99.90;;;;;;5112121;28;20039;-57
2021/05/04 05:29:16;;;;;;;9.52;3.70;;;8.70;99.90;;;;;;5112346;28;20067;-58
2021/05/04 05:31:42;;;;;;;6.88;3.65;;;8.70;99.90;;;;;;5112186;28;20071;-59
2021/05/04 05:34:08;;;;;;;5.78;4.30;;;8.70;99.90;;;;;;5112333;28;20044;-59
2021/05/04 05:36:34;;;;;;;5.55;4.22;;;8.60;99.90;;;;;;5112335;28;20050;-58
2021/05/04 05:39:00;;;;;;;6.75;3.55;;;8.60;99.90;;;;;;5111933;28;20397;-59
2021/05/04 05:41:26;;;;;;;9.55;3.90;;;8.50;99.90;;;;;;5112129;28;20043;-58
2021/05/04 05:43:52;;;;;;;6.95;3.05;;;8.60;99.90;;;;;;5112339;28;20055;-58
2021/05/04 05:46:18;;;;;;;3.47;2.88;;;8.50;99.90;;;;;;5112224;28;20050;-58
2021/05/04 05:48:44;;;;;;;5.85;3.10;;;8.50;99.90;;;;;;5112082;28;20047;-59
2021/05/04 05:51:10;;;;;;;3.65;2.70;;;8.50;99.90;;;;;;5112235;28;20119;-58
2021/05/04 05:53:37;;;;;;;3.83;2.80;;;8.60;99.90;;;;;;5112153;28;20078;-58
2021/05/04 05:56:04;;;;;;;5.30;3.22;;;8.60;99.90;;;;;;5112645;28;20185;-60
2021/05/04 05:58:30;;;;;;;7.10;2.78;;;8.60;99.90;;;;;;5112748;28;20089;-58
2021/05/04 06:00:56;;;;;;;6.68;2.75;;;8.70;99.90;;;;;;5112166;28;20044;-58
2021/05/04 06:03:22;;;;;;;3.38;3.08;;;8.70;99.90;;;;;;5111929;28;20043;-59
2021/05/04 06:05:49;;;;;;;7.25;2.95;;;8.70;99.90;;;;;;5111924;28;20130;-59
2021/05/04 06:08:16;;;;;;;6.72;3.35;;;8.80;99.90;;;;;;5111989;28;20039;-58
2021/05/04 06:10:41;;;;;;;8.25;3.83;;;8.90;99.90;;;;;;5111775;28;20039;-58
2021/05/04 06:13:08;;;;;;;7.00;3.33;;;8.90;99.90;;;;;;5112080;28;20047;-57
2021/05/04 06:15:36;;;;;;;7.25;3.58;;;8.80;99.90;;;;;;5111975;28;20468;-58
2021/05/04 06:18:02;;;;;;;10.38;3.97;;;8.90;99.90;;;;;;5111593;28;20065;-59
2021/05/04 06:20:27;;;;;;;9.60;3.97;;;8.90;99.90;;;;;;5111852;28;20043;-57
2021/05/04 06:22:53;;;;;;;9.65;4.38;;;8.90;99.90;;;;;;5111752;28;20048;-58
2021/05/04 06:25:19;;;;;;;8.57;3.92;;;8.90;99.90;;;;;;5111667;28;20051;-58
2021/05/04 06:27:45;;;;;;;8.90;4.18;;;8.90;99.90;;;;;;5111711;28;20044;-58
2021/05/04 06:30:13;;;;;;;12.05;4.15;;;9.00;99.90;;;;;;5114033;28;20047;-58
2021/05/04 06:32:42;;;;;;;8.15;4.05;;;9.10;99.90;;;;;;5115370;28;20430;-58
2021/05/04 06:35:09;;;;;;;;;;;9.00;99.90;;;;;;5097897;28;20044;-58
2021/05/04 06:37:34;;;;;;;8.93;3.60;;;9.00;99.90;;;;;;5115979;28;19933;-58
2021/05/04 06:40:51;;;;;;;10.65;3.80;;;9.10;99.90;;;;;;4017963;28;20253;-59
2021/05/04 06:43:17;;;;;;;7.45;3.67;;;9.00;99.90;;;;;;5115535;28;20051;-59
2021/05/04 06:45:44;;;;;;;14.48;3.78;;;9.00;99.90;;;;;;5115422;28;20039;-58
2021/05/04 06:48:09;;;;;;;12.98;4.30;;;9.00;99.90;;;;;;5097374;28;20503;-59
2021/05/04 06:50:35;;;;;;;15.68;3.92;;;9.00;99.90;;;;;;5115697;28;20047;-58
2021/05/04 06:53:02;;;;;;;10.27;4.50;;;9.00;99.90;;;;;;5115361;28;20048;-58
2021/05/04 06:55:31;;;;;;;7.00;3.78;;;9.10;99.90;;;;;;5115511;28;20061;-57
2021/05/04 06:57:57;;;;;;;7.32;3.63;;;9.10;99.90;;;;;;5115311;28;20044;-58
2021/05/04 07:00:24;;;;;;;10.95;3.08;;;9.20;99.90;;;;;;5115189;28;20082;-58
2021/05/04 07:02:49;;;;;;;5.95;2.65;;;9.10;99.90;;;;;;5115047;28;20074;-58
2021/05/04 07:05:16;;;;;;;10.85;3.17;;;9.20;99.90;;;;;;5115337;28;20137;-58
2021/05/04 07:07:42;;;;;;;6.97;3.13;;;9.20;99.90;;;;;;5115104;28;20048;-58
2021/05/04 07:10:09;;;;;;;11.45;3.63;;;9.40;99.90;;;;;;5114872;28;20050;-58
2021/05/04 07:12:35;;;;;;;14.18;3.90;;;9.40;99.90;;;;;;5115032;28;20047;-58
2021/05/04 07:15:01;;;;;;;14.70;3.65;;;9.40;99.90;;;;;;5114648;28;20048;-58
2021/05/04 07:17:27;;;;;;;17.38;4.15;;;9.40;99.90;;;;;;5114608;28;20126;-58
2021/05/04 07:19:55;;;;;;;12.13;3.35;;;9.30;99.90;;;;;;5114897;28;20062;-59
2021/05/04 07:22:24;;;;;;;12.77;4.25;;;9.30;99.90;;;;;;5114837;28;20432;-58
2021/05/04 07:24:50;;;;;;;14.73;3.65;;;9.20;99.90;;;;;;5114713;28;20126;-58
2021/05/04 07:27:16;;;;;;;10.02;3.03;;;9.20;99.90;;;;;;5114703;28;20132;-57
2021/05/04 07:29:41;;;;;;;15.75;3.53;;;9.20;99.90;;;;;;5114573;28;20071;-58
2021/05/04 07:32:07;;;;;;;15.10;3.83;;;9.20;99.90;;;;;;5114598;28;20040;-58
2021/05/04 07:34:33;;;;;;;15.52;3.50;;;9.30;99.90;;;;;;5114564;28;20031;-58
2021/05/04 07:36:59;;;;;;;17.45;3.55;;;9.20;99.90;;;;;;5114548;28;20046;-59
2021/05/04 07:39:25;;;;;;;13.52;3.75;;;9.20;99.90;;;;;;5114375;28;20439;-58
2021/05/04 07:41:50;;;;;;;16.45;3.30;;;9.20;99.90;;;;;;5095310;28;20052;-58
2021/05/04 07:44:16;;;;;;;14.85;3.50;;;9.20;99.90;;;;;;5114327;28;20055;-58
2021/05/04 07:46:43;;;;;;;22.65;3.85;;;9.30;99.90;;;;;;5114248;28;20048;-58
2021/05/04 07:49:12;;;;;;;15.75;4.20;;;9.40;99.90;;;;;;5114414;28;20126;-58
2021/05/04 07:51:39;;;;;;;15.60;3.17;;;9.40;99.90;;;;;;5114224;28;20134;-58
2021/05/04 07:54:05;;;;;;;17.63;4.07;;;9.40;99.90;;;;;;5114076;28;20050;-58
2021/05/04 07:56:31;;;;;;;17.83;3.58;;;9.50;99.90;;;;;;5114542;28;20123;-58
2021/05/04 07:58:57;;;;;;;15.57;3.50;;;9.50;99.90;;;;;;5114482;28;20114;-57
2021/05/04 08:01:23;;;;;;;22.75;4.28;;;9.60;99.90;;;;;;5114007;28;20063;-59
2021/05/04 08:03:48;;;;;;;19.45;3.55;;;9.90;99.90;;;;;;5114410;28;20051;-58
2021/05/04 08:06:14;;;;;;;13.38;2.90;;;10.10;99.90;;;;;;5114060;28;20473;-58
2021/05/04 08:08:40;;;;;;;17.90;3.67;;;10.20;99.90;;;;;;5113972;28;20046;-58
2021/05/04 08:11:06;;;;;;;19.30;3.90;;;10.30;99.90;;;;;;5113552;28;20177;-58
2021/05/04 08:13:32;;;;;;;15.77;3.35;;;10.30;99.90;;;;;;5113736;28;20044;-57
2021/05/04 08:15:59;;;;;;;8.48;2.85;;;10.30;99.90;;;;;;5113905;28;20051;-58
2021/05/04 08:18:26;;;;;;;15.05;3.65;;;10.30;99.90;;;;;;5113713;28;20071;-58
2021/05/04 08:20:53;;;;;;;15.50;3.22;;;10.30;99.90;;;;;;5113545;28;20043;-57
2021/05/04 08:23:23;;;;;;;14.57;3.42;;;10.40;99.90;;;;;;5113373;28;20485;-57
2021/05/04 08:25:49;;;;;;;15.93;3.13;;;10.40;99.90;;;;;;5113519;28;20119;-58
2021/05/04 08:28:15;;;;;;;15.30;3.05;;;10.20;99.90;;;;;;5113335;28;20130;-57
2021/05/04 08:30:41;;;;;;;17.50;2.83;;;10.60;99.90;;;;;;5113393;28;20115;-58
2021/05/04 08:33:07;;;;;;;12.85;2.53;;;10.70;99.90;;;;;;5113359;28;20046;-57
2021/05/04 08:35:33;;;;;;;15.00;2.25;;;11.20;99.90;;;;;;5113266;28;20035;-57
2021/05/04 08:37:58;;;;;;;15.40;4.07;;;11.50;99.90;;;;;;5113270;28;20039;-57
2021/05/04 08:40:25;;;;;;;12.25;2.72;;;11.50;99.90;;;;;;5113338;28;20076;-57
2021/05/04 08:42:51;;;;;;;10.00;2.85;;;11.40;99.90;;;;;;5094657;28;20051;-57
2021/05/04 08:45:17;;;;;;;18.83;4.38;;;11.30;99.90;;;;;;5113137;28;20104;-57
2021/05/04 08:47:48;;;;;;;13.75;2.97;;;11.70;99.90;;;;;;5113215;28;20116;-56
2021/05/04 08:50:19;;;;;;;14.27;2.83;;;12.10;99.90;;;;;;5112980;28;20044;-57
2021/05/04 08:52:45;;;;;;;13.45;2.60;;;12.40;99.90;;;;;;5112984;28;20044;-56
2021/05/04 08:55:12;;;;;;;10.00;3.05;;;12.50;99.90;;;;;;5112783;28;20046;-57
2021/05/04 08:57:39;;;;;;;11.85;3.55;;;12.30;99.90;;;;;;5113131;28;20047;-56
2021/05/04 09:00:10;;;;;;;9.68;3.45;;;12.00;99.90;;;;;;5112821;28;20093;-56
2021/05/04 09:03:06;;;;;;;14.25;2.75;;;11.90;99.90;;;;;;5113186;28;20543;-56
2021/05/04 09:09:03;;;;;;;8.45;1.88;;;11.60;99.90;;;;;;5112683;28;20477;-56
2021/05/04 09:23:04;;;;;;;10.52;3.22;;;10.60;99.90;;;;;;5112460;28;20393;-56
2021/05/04 09:25:36;;;;;;;5.97;1.73;;;11.00;99.90;;;;;;5029855;28;20049;-56
2021/05/04 09:28:03;;;;;;;8.80;2.00;;;10.90;99.90;;;;;;5030057;28;20085;-56
2021/05/04 09:30:33;;;;;;;11.15;2.00;;;10.60;99.90;;;;;;5013439;28;20483;-56
2021/05/04 09:33:09;;;;;;;8.43;2.17;;;10.40;99.90;;;;;;5029996;28;20049;-56
2021/05/04 09:35:35;;;;;;;10.25;2.05;;;10.30;99.90;;;;;;5029790;28;20087;-56
2021/05/04 09:38:06;;;;;;;10.48;2.50;;;10.30;99.90;;;;;;5029939;28;20041;-56
2021/05/04 09:40:37;;;;;;;4.95;2.13;;;10.50;99.90;;;;;;5029658;28;20107;-56
2021/05/04 09:43:09;;;;;;;12.35;2.75;;;10.50;99.90;;;;;;5011797;28;20054;-56
2021/05/04 09:45:38;;;;;;;15.48;2.83;;;10.60;99.90;;;;;;5010036;28;20064;-56
2021/05/04 09:48:16;;;;;;;11.35;2.53;;;10.10;99.90;;;;;;5009902;28;20125;-56
2021/05/04 09:50:46;;;;;;;5.25;1.77;;;9.70;99.90;;;;;;5009767;28;20128;-56
2021/05/04 09:53:14;;;;;;;4.60;1.35;;;9.50;99.90;;;;;;5009938;28;20052;-56
2021/05/04 09:55:59;;;;;;;9.82;1.50;;;9.20;99.90;;;;;;5009881;28;20049;-55
2021/05/04 09:58:35;;;;;;;4.20;1.00;;;9.10;99.90;;;;;;5009770;28;20407;-55
2021/05/04 10:01:03;;;;;;;5.82;1.48;;;9.10;99.90;;;;;;5055816;28;20048;-56
2021/05/04 10:03:29;;;;;;;9.85;2.40;;;9.00;99.90;;;;;;5073850;28;20087;-56
2021/05/04 10:05:58;;;;;;;11.10;2.42;;;9.00;99.90;;;;;;5095342;28;20465;-56
2021/05/04 10:08:24;;;;;;;;;;;9.00;99.90;;;;;;5096419;28;20102;-56
2021/05/04 10:10:50;;;;;;;7.38;2.13;;;9.10;99.90;;;;;;5096197;28;20385;-56
2021/05/04 10:13:17;;;;;;;10.85;2.20;;;9.10;99.90;;;;;;5095812;28;20090;-56
2021/05/04 10:15:47;;;;;;;14.23;2.58;;;9.20;99.90;;;;;;5095670;28;20047;-56
2021/05/04 10:18:14;;;;;;;19.73;3.67;;;9.30;99.90;;;;;;5095689;28;20059;-58
2021/05/04 10:20:42;;;;;;;13.05;2.92;;;9.50;99.90;;;;;;5095748;28;20060;-56
2021/05/04 10:23:13;;;;;;;18.58;3.35;;;9.80;99.90;;;;;;5095589;28;20102;-56
2021/05/04 10:25:41;;;;;;;14.20;3.90;;;10.30;99.90;;;;;;5095518;28;20048;-56
2021/05/04 10:28:09;;;;;;;15.23;3.20;;;10.50;99.90;;;;;;5095584;28;20048;-56
2021/05/04 10:30:35;;;;;;;14.73;3.20;;;10.50;99.90;;;;;;5095238;28;20040;-56
2021/05/04 10:33:10;;;;;;;13.38;2.58;;;10.50;99.90;;;;;;5095369;28;20044;-56
2021/05/04 10:35:48;;;;;;;7.65;2.33;;;10.40;99.90;;;;;;5095207;28;20064;-56
2021/05/04 10:38:16;;;;;;;8.93;2.80;;;10.30;99.90;;;;;;5095262;28;20051;-56
2021/05/04 10:40:43;;;;;;;6.70;1.55;;;10.10;99.90;;;;;;5095284;28;20156;-56
2021/05/04 10:43:21;;;;;;;7.18;1.40;;;9.80;99.90;;;;;;5114220;28;20056;-56
2021/05/04 10:45:48;;;;;;;7.75;1.38;;;9.50;99.90;;;;;;5115416;28;20126;-55
2021/05/04 10:48:14;;;;;;;3.10;0.85;;;8.90;99.90;;;;;;5115406;28;20047;-56
2021/05/04 10:50:49;;;;;;;3.63;0.90;;;8.70;99.90;;;;;;5115405;28;20051;-56
2021/05/04 10:53:16;;;;;;;5.20;1.10;;;8.50;99.90;;;;;;5115198;28;20105;-56
2021/05/04 10:55:51;;;;;;;3.30;1.10;;;8.40;99.90;;;;;;5115149;28;20039;-56
2021/05/04 10:58:24;;;;;;;7.50;1.13;;;8.50;99.90;;;;;;5114986;28;20040;-56
2021/05/04 11:00:51;;;;;;;6.32;1.63;;;8.50;99.90;;;;;;5115194;28;20046;-56
2021/05/04 11:03:32;;;;;;;9.45;1.83;;;8.70;99.90;;;;;;5114946;28;20093;-56
2021/05/04 11:06:02;;;;;;;4.38;1.42;;;9.00;99.90;;;;;;5115162;28;20063;-56
2021/05/04 11:08:43;;;;;;;6.57;1.70;;;9.20;99.90;;;;;;5114983;28;20062;-55
2021/05/04 11:11:41;;;;;;;9.85;2.22;;;9.60;99.90;;;;;;5115128;28;20046;-56
2021/05/04 11:14:15;;;;;;;6.18;1.65;;;10.20;99.90;;;;;;5112316;28;20097;-55
2021/05/04 11:16:53;;;;;;;6.38;1.70;;;10.50;99.90;;;;;;5108948;28;20039;-55
2021/05/04 11:19:25;;;;;;;6.67;1.83;;;10.50;99.90;;;;;;5115133;28;20077;-55
2021/05/04 11:22:02;;;;;;;9.18;1.70;;;10.60;99.90;;;;;;5114720;28;20048;-56
2021/05/04 11:24:34;;;;;;;6.75;1.77;;;10.40;99.90;;;;;;5114848;28;20066;-55
2021/05/04 11:27:08;;;;;;;8.13;2.38;;;10.10;99.90;;;;;;5114746;28;20051;-55
2021/05/04 11:29:34;;;;;;;5.38;1.90;;;9.80;99.90;;;;;;5096514;28;20169;-55
2021/05/04 11:32:14;;;;;;;10.50;3.08;;;9.50;99.90;;;;;;5114685;28;20074;-55
2021/05/04 11:34:56;;;;;;;7.20;1.40;;;9.50;99.90;;;;;;5114797;28;20044;-55
2021/05/04 11:37:27;;;;;;;4.72;1.33;;;9.40;99.90;;;;;;5114453;28;20096;-56
2021/05/04 11:39:56;;;;;;;7.00;1.30;;;9.40;99.90;;;;;;5114534;28;20048;-55
2021/05/04 11:42:25;;;;;;;8.10;1.40;;;9.30;99.90;;;;;;5114070;28;20067;-55
2021/05/04 11:44:51;;;;;;;6.85;2.08;;;9.40;99.90;;;;;;5114531;28;20435;-55
2021/05/04 11:47:22;;;;;;;5.15;1.52;;;9.30;99.90;;;;;;5114340;28;20047;-55
2021/05/04 11:49:48;;;;;;;6.28;1.40;;;9.50;99.90;;;;;;5114068;28;20496;-55
2021/05/04 11:52:18;;;;;;;4.97;1.60;;;9.60;99.90;;;;;;5114150;28;20036;-55
2021/05/04 11:54:47;;;;;;;6.85;2.08;;;9.70;99.90;;;;;;5114258;28;20117;-56
2021/05/04 11:57:13;;;;;;;7.22;2.25;;;9.60;99.90;;;;;;5114158;28;20035;-56
2021/05/04 11:59:39;;;;;;;4.60;1.40;;;9.50;99.90;;;;;;5095886;28;20114;-55
2021/05/04 12:02:05;;;;;;;4.57;1.35;;;9.30;99.90;;;;;;5114120;28;20188;-55
2021/05/04 12:04:49;;;;;;;6.78;1.13;;;9.30;99.90;;;;;;5114076;28;20047;-55
2021/05/04 12:07:37;;;;;;;5.97;1.42;;;9.40;99.90;;;;;;5114179;28;20039;-55
2021/05/04 12:10:19;;;;;;;6.45;2.33;;;9.50;99.90;;;;;;5095705;28;20079;-55
2021/05/04 12:12:47;;;;;;;5.28;1.77;;;9.50;99.90;;;;;;5114009;28;20085;-55
2021/05/04 12:15:17;;;;;;;6.23;1.60;;;9.30;99.90;;;;;;5113999;28;20513;-56
2021/05/04 12:17:53;;;;;;;4.90;1.83;;;9.20;99.90;;;;;;5113807;28;20039;-56
2021/05/04 12:20:21;;;;;;;8.18;2.30;;;9.10;99.90;;;;;;5114141;28;20052;-56
2021/05/04 12:22:49;;;;;;;5.88;2.00;;;9.10;99.90;;;;;;5113874;28;20042;-56
2021/05/04 12:25:22;;;;;;;5.30;1.60;;;8.80;99.90;;;;;;5113913;28;20043;-55
2021/05/04 12:27:49;;;;;;;2.13;1.38;;;8.70;99.90;;;;;;5113087;28;20039;-55
2021/05/04 12:30:23;;;;;;;4.07;1.90;;;8.70;99.90;;;;;;5113515;28;20046;-55
2021/05/04 12:32:50;;;;;;;7.47;2.97;;;8.80;99.90;;;;;;5113573;28;20123;-55
2021/05/04 12:35:29;;;;;;;11.18;2.70;;;8.90;99.90;;;;;;5113422;28;20493;-55
2021/05/04 12:38:19;;;;;;;4.68;2.30;;;9.20;99.90;;;;;;5113309;28;20532;-55
2021/05/04 12:40:56;;;;;;;5.70;2.88;;;9.50;99.90;;;;;;5113387;28;20384;-55
2021/05/04 12:43:27;;;;;;;6.47;2.63;;;9.50;99.90;;;;;;5113216;28;20061;-55
2021/05/04 12:46:11;;;;;;;4.65;2.58;;;9.50;99.90;;;;;;5113516;28;20047;-55
2021/05/04 12:48:39;;;;;;;6.38;2.50;;;9.50;99.90;;;;;;5113077;28;20538;-55
2021/05/04 12:51:08;;;;;;;4.57;2.28;;;9.90;99.90;;;;;;5113302;28;20042;-55
2021/05/04 12:53:37;;;;;;;6.03;2.10;;;10.20;99.90;;;;;;5113550;28;20047;-55
2021/05/04 12:56:06;;;;;;;5.22;2.00;;;10.30;99.90;;;;;;5113437;28;20045;-55
2021/05/04 12:58:32;;;;;;;3.72;1.80;;;10.20;99.90;;;;;;5113202;28;20045;-55
2021/05/04 13:01:06;;;;;;;7.82;2.13;;;10.10;99.90;;;;;;5112979;28;20047;-55
2021/05/04 13:03:53;;;;;;;6.13;1.77;;;10.00;99.90;;;;;;5113312;28;20072;-55
2021/05/04 13:06:28;;;;;;;8.00;2.53;;;9.80;99.90;;;;;;5113045;28;20092;-55
2021/05/04 13:09:01;;;;;;;5.63;2.22;;;9.60;99.90;;;;;;5112837;28;20073;-56
2021/05/04 13:32:02;;;;;;;6.18;2.00;;;9.20;99.90;;;;;;5096908;28;20074;-55